Time;durP1;ratioP1;P1;durP2;ratioP2;P2;SDS_P1;SDS_P2;PMS_P1;PMS_P2;Temp;Humidity;BMP_temperature;BMP_pressure;BME280_temperature;BME280_humidity;BME280_pressure;Samples;Min_cycle;Max_cycle;Signal;HPM_P1;HPM_P2
2023/12/22 00:04:38;;;;;;;22.15;15.02;;;;;;;;;;10014661;28;20176;-69
2023/12/22 00:09:30;;;;;;;15.93;11.05;;;;;;;;;;10015943;28;20049;-71
2023/12/22 00:14:22;;;;;;;16.50;11.32;;;;;;;;;;10017230;28;20038;-72
2023/12/22 00:19:14;;;;;;;14.23;11.60;;;;;;;;;;10015508;28;20077;-70
2023/12/22 00:24:06;;;;;;;17.35;10.82;;;;;;;;;;10017357;28;20060;-71
2023/12/22 00:28:58;;;;;;;21.98;15.63;;;;;;;;;;10015017;28;20053;-71
2023/12/22 00:33:50;;;;;;;14.55;10.43;;;;;;;;;;10017057;28;20128;-69
2023/12/22 00:38:42;;;;;;;16.02;9.63;;;;;;;;;;10015313;28;20050;-71
2023/12/22 00:43:34;;;;;;;17.05;9.95;;;;;;;;;;10012959;28;20042;-71
2023/12/22 00:48:26;;;;;;;17.50;11.82;;;;;;;;;;10015062;28;20472;-71
2023/12/22 00:53:18;;;;;;;5.85;3.30;;;;;;;;;;10014966;28;20061;-71
2023/12/22 00:58:10;;;;;;;2.03;1.77;;;;;;;;;;10014804;28;20481;-71
2023/12/22 01:03:02;;;;;;;2.65;1.75;;;;;;;;;;10015254;28;20148;-71
2023/12/22 01:07:54;;;;;;;2.35;1.77;;;;;;;;;;10010083;28;20041;-72
2023/12/22 01:12:46;;;;;;;3.72;1.90;;;;;;;;;;10017076;28;20476;-71
2023/12/22 01:17:38;;;;;;;2.40;1.25;;;;;;;;;;10013255;28;20462;-71
2023/12/22 01:22:32;;;;;;;1.45;1.30;;;;;;;;;;10010167;28;20049;-71
2023/12/22 01:27:24;;;;;;;1.30;1.20;;;;;;;;;;10015360;28;20049;-70
2023/12/22 01:32:15;;;;;;;1.23;1.10;;;;;;;;;;10014046;28;20468;-70
2023/12/22 01:37:08;;;;;;;1.13;1.02;;;;;;;;;;10014505;28;20052;-70
2023/12/22 01:42:00;;;;;;;1.25;1.02;;;;;;;;;;10015018;28;20046;-70
2023/12/22 01:46:52;;;;;;;2.03;1.00;;;;;;;;;;10014594;28;20421;-70
2023/12/22 01:51:44;;;;;;;1.25;1.15;;;;;;;;;;10011753;28;20101;-70
2023/12/22 01:56:36;;;;;;;1.10;1.00;;;;;;;;;;10011575;28;20133;-71
2023/12/22 02:01:28;;;;;;;1.98;1.20;;;;;;;;;;10013206;28;20070;-70
2023/12/22 02:06:21;;;;;;;1.52;0.90;;;;;;;;;;10012678;28;20038;-72
2023/12/22 02:11:16;;;;;;;1.10;1.00;;;;;;;;;;10012508;28;20070;-70
2023/12/22 02:16:33;;;;;;;3.13;0.95;;;;;;;;;;10014887;28;20035;-70
2023/12/22 02:21:24;;;;;;;2.03;1.13;;;;;;;;;;10007382;28;20050;-70
2023/12/22 02:26:26;;;;;;;0.77;0.75;;;;;;;;;;10015533;28;20423;-70
2023/12/22 02:31:32;;;;;;;0.90;0.90;;;;;;;;;;10011545;28;20046;-70
2023/12/22 02:36:25;;;;;;;4.82;1.50;;;;;;;;;;10011064;28;20743;-70
2023/12/22 02:41:18;;;;;;;0.80;0.80;;;;;;;;;;10011066;28;20539;-68
2023/12/22 02:46:14;;;;;;;1.30;0.90;;;;;;;;;;10017679;28;20042;-68
2023/12/22 02:51:06;;;;;;;6.00;1.35;;;;;;;;;;10019465;28;20050;-69
2023/12/22 02:55:58;;;;;;;1.55;1.23;;;;;;;;;;10018587;28;20042;-68
2023/12/22 03:00:50;;;;;;;2.72;0.90;;;;;;;;;;10020945;28;20120;-68
2023/12/22 03:05:42;;;;;;;0.90;0.90;;;;;;;;;;10021188;28;20592;-68
2023/12/22 03:10:34;;;;;;;1.00;1.00;;;;;;;;;;10019427;28;20046;-68
2023/12/22 03:15:26;;;;;;;1.92;1.10;;;;;;;;;;10016445;28;20056;-68
2023/12/22 03:20:18;;;;;;;1.95;1.25;;;;;;;;;;10020903;28;20125;-68
2023/12/22 03:25:10;;;;;;;1.83;1.10;;;;;;;;;;10019315;28;20045;-68
2023/12/22 03:30:03;;;;;;;2.65;1.23;;;;;;;;;;10018840;28;20133;-68
2023/12/22 03:34:55;;;;;;;5.53;1.00;;;;;;;;;;10021679;28;20053;-68
2023/12/22 03:39:47;;;;;;;1.92;1.20;;;;;;;;;;10016764;28;20042;-67
2023/12/22 03:44:39;;;;;;;3.80;1.40;;;;;;;;;;10019624;28;20108;-68
2023/12/22 03:49:30;;;;;;;1.00;0.90;;;;;;;;;;10015979;28;20053;-68
2023/12/22 03:54:22;;;;;;;3.70;0.98;;;;;;;;;;10016139;28;20060;-68
2023/12/22 03:59:14;;;;;;;1.45;1.13;;;;;;;;;;10017184;28;20053;-68
2023/12/22 04:04:06;;;;;;;27.85;13.00;;;;;;;;;;10017114;28;20084;-70
2023/12/22 04:08:58;;;;;;;8.80;1.27;;;;;;;;;;10016303;28;20421;-67
2023/12/22 04:13:50;;;;;;;2.30;0.80;;;;;;;;;;10014622;28;20389;-68
2023/12/22 04:18:42;;;;;;;1.00;0.90;;;;;;;;;;10018112;28;20128;-68
2023/12/22 04:23:34;;;;;;;2.85;1.00;;;;;;;;;;10013954;28;20042;-68
2023/12/22 04:28:26;;;;;;;2.40;0.90;;;;;;;;;;10015805;28;20046;-68
2023/12/22 04:33:18;;;;;;;2.22;1.15;;;;;;;;;;10017616;28;20104;-68
2023/12/22 04:38:10;;;;;;;1.63;0.95;;;;;;;;;;10014674;28;20041;-68
2023/12/22 04:43:02;;;;;;;1.48;1.00;;;;;;;;;;10015108;28;20088;-68
2023/12/22 04:47:54;;;;;;;1.30;1.17;;;;;;;;;;10016216;28;20046;-68
2023/12/22 04:52:46;;;;;;;1.17;0.98;;;;;;;;;;10016272;28;20053;-68
2023/12/22 04:57:38;;;;;;;2.17;1.25;;;;;;;;;;10010790;28;20053;-70
2023/12/22 05:02:30;;;;;;;1.67;1.10;;;;;;;;;;10016625;28;20069;-68
2023/12/22 05:07:21;;;;;;;0.95;0.85;;;;;;;;;;10013048;28;20128;-68
2023/12/22 05:12:13;;;;;;;2.45;0.98;;;;;;;;;;10016166;28;20042;-68
2023/12/22 05:17:05;;;;;;;1.77;0.90;;;;;;;;;;10016491;28;20120;-68
2023/12/22 05:21:57;;;;;;;3.20;0.95;;;;;;;;;;10019085;28;20100;-69
2023/12/22 05:26:49;;;;;;;6.30;5.78;;;;;;;;;;10023684;28;20096;-69
2023/12/22 05:31:41;;;;;;;2.38;0.98;;;;;;;;;;10022462;28;20436;-69
2023/12/22 05:36:33;;;;;;;1.92;1.00;;;;;;;;;;10023263;28;20104;-69
2023/12/22 05:41:25;;;;;;;2.70;0.90;;;;;;;;;;10022991;28;20125;-70
2023/12/22 05:46:16;;;;;;;2.78;1.10;;;;;;;;;;10022958;28;20044;-69
2023/12/22 05:51:13;;;;;;;3.63;0.85;;;;;;;;;;10022830;28;20400;-68
2023/12/22 05:56:05;;;;;;;3.22;1.17;;;;;;;;;;10022442;28;20380;-68
2023/12/22 06:00:57;;;;;;;1.10;0.70;;;;;;;;;;10021126;28;20381;-68
2023/12/22 06:05:49;;;;;;;3.38;0.82;;;;;;;;;;10022787;28;20054;-68
2023/12/22 06:10:41;;;;;;;1.65;1.00;;;;;;;;;;10021199;28;20054;-68
2023/12/22 06:15:33;;;;;;;1.75;0.85;;;;;;;;;;10018038;28;20050;-68
2023/12/22 06:20:26;;;;;;;2.42;0.80;;;;;;;;;;10025828;28;20038;-68
2023/12/22 06:25:18;;;;;;;3.28;0.80;;;;;;;;;;10024374;28;20045;-73
2023/12/22 06:30:10;;;;;;;4.50;4.20;;;;;;;;;;10025348;28;20058;-73
2023/12/22 06:35:09;;;;;;;3.17;1.23;;;;;;;;;;10020046;28;20567;-74
2023/12/22 06:40:05;;;;;;;0.77;0.77;;;;;;;;;;10021665;28;20057;-72
2023/12/22 06:44:58;;;;;;;1.25;1.08;;;;;;;;;;10022064;28;20156;-72
2023/12/22 06:49:50;;;;;;;3.55;1.20;;;;;;;;;;10019703;28;20081;-72
2023/12/22 06:54:43;;;;;;;5.53;2.13;;;;;;;;;;10016716;28;20052;-72
2023/12/22 06:59:35;;;;;;;0.90;0.80;;;;;;;;;;10016829;28;20123;-74
2023/12/22 07:04:29;;;;;;;1.67;0.90;;;;;;;;;;10017458;28;20469;-72
2023/12/22 07:09:20;;;;;;;4.32;0.93;;;;;;;;;;10017902;28;20046;-72
2023/12/22 07:14:12;;;;;;;2.67;1.30;;;;;;;;;;10018021;28;20425;-73
2023/12/22 07:19:05;;;;;;;1.25;0.73;;;;;;;;;;10012384;28;20343;-73
2023/12/22 07:23:58;;;;;;;1.17;0.95;;;;;;;;;;10018332;28;20046;-73
2023/12/22 07:28:51;;;;;;;7.88;1.20;;;;;;;;;;10015489;28;20060;-76
2023/12/22 07:33:44;;;;;;;0.90;0.70;;;;;;;;;;10016523;28;20176;-75
2023/12/22 07:38:39;;;;;;;1.02;0.80;;;;;;;;;;10014062;28;20053;-75
2023/12/22 07:43:31;;;;;;;130.45;34.17;;;;;;;;;;10014635;28;20140;-75
2023/12/22 07:48:25;;;;;;;5.50;0.70;;;;;;;;;;10015882;28;20422;-75
2023/12/22 07:53:17;;;;;;;0.70;0.68;;;;;;;;;;10011934;28;20052;-75
2023/12/22 07:58:09;;;;;;;24.27;22.52;;;;;;;;;;10016068;28;20137;-75
2023/12/22 08:03:01;;;;;;;2.42;0.70;;;;;;;;;;10013607;28;20092;-75
2023/12/22 08:07:53;;;;;;;1.55;0.80;;;;;;;;;;10014627;28;20053;-74
2023/12/22 08:12:45;;;;;;;1.48;0.60;;;;;;;;;;10014458;28;20469;-74
2023/12/22 08:17:37;;;;;;;2.38;0.60;;;;;;;;;;10013378;28;20050;-74
2023/12/22 08:22:29;;;;;;;2.35;0.60;;;;;;;;;;10016316;28;20046;-75
2023/12/22 08:27:24;;;;;;;72.68;40.10;;;;;;;;;;10013322;28;20058;-75
2023/12/22 08:32:16;;;;;;;582.53;125.03;;;;;;;;;;10011271;28;20054;-74
2023/12/22 08:37:08;;;;;;;128.00;41.60;;;;;;;;;;10011518;28;20046;-75
2023/12/22 08:42:00;;;;;;;2.25;1.13;;;;;;;;;;10009801;28;20529;-74
2023/12/22 08:46:52;;;;;;;3.38;2.55;;;;;;;;;;10011895;28;20048;-74
2023/12/22 08:51:43;;;;;;;4.15;1.60;;;;;;;;;;10012271;28;20163;-74
2023/12/22 08:56:35;;;;;;;117.72;65.72;;;;;;;;;;10011165;28;20060;-74
2023/12/22 09:01:27;;;;;;;11.70;10.70;;;;;;;;;;10010234;28;20045;-74
2023/12/22 09:06:21;;;;;;;1.58;1.33;;;;;;;;;;10010770;28;20067;-74
2023/12/22 09:11:16;;;;;;;4.05;2.50;;;;;;;;;;10006628;28;20073;-74
2023/12/22 09:16:09;;;;;;;6.55;6.05;;;;;;;;;;10011628;28;20056;-74
2023/12/22 09:21:01;;;;;;;64.50;16.13;;;;;;;;;;10013581;28;20136;-74
2023/12/22 09:25:53;;;;;;;1.00;0.90;;;;;;;;;;10019176;28;20042;-74
2023/12/22 09:30:45;;;;;;;671.35;128.23;;;;;;;;;;10018047;28;20060;-74
2023/12/22 09:35:37;;;;;;;2.47;0.65;;;;;;;;;;10019462;28;20049;-73
2023/12/22 09:40:29;;;;;;;216.20;73.28;;;;;;;;;;10021121;28;20099;-74
2023/12/22 09:45:21;;;;;;;5.68;1.77;;;;;;;;;;10020185;28;20129;-74
2023/12/22 09:50:15;;;;;;;0.90;0.90;;;;;;;;;;10021479;28;20160;-74
2023/12/22 09:55:08;;;;;;;4.30;1.00;;;;;;;;;;10020218;28;20050;-73
2023/12/22 10:00:00;;;;;;;61.35;8.65;;;;;;;;;;10020490;28;20133;-73
2023/12/22 10:04:55;;;;;;;4.75;1.13;;;;;;;;;;10020096;28;20195;-73
2023/12/22 10:09:48;;;;;;;39.38;35.10;;;;;;;;;;10020327;28;20100;-74
2023/12/22 10:14:40;;;;;;;2.33;2.13;;;;;;;;;;10019301;28;20066;-72
2023/12/22 10:19:32;;;;;;;84.10;19.27;;;;;;;;;;10017867;28;20110;-72
2023/12/22 10:24:37;;;;;;;0.90;0.85;;;;;;;;;;10016478;28;20042;-73
2023/12/22 10:29:29;;;;;;;62.30;14.60;;;;;;;;;;10017573;28;20329;-72
2023/12/22 10:34:21;;;;;;;8.23;0.82;;;;;;;;;;10020792;28;20532;-72
2023/12/22 10:39:14;;;;;;;2.42;0.73;;;;;;;;;;10017871;28;20045;-72
2023/12/22 10:44:05;;;;;;;26.83;23.88;;;;;;;;;;10017683;28;20064;-72
2023/12/22 10:48:57;;;;;;;0.60;0.60;;;;;;;;;;10018352;28;20555;-72
2023/12/22 10:53:50;;;;;;;3.72;1.67;;;;;;;;;;10016058;28;20814;-72
2023/12/22 10:58:42;;;;;;;0.90;0.70;;;;;;;;;;10019845;28;20054;-72
2023/12/22 11:03:41;;;;;;;1.30;0.88;;;;;;;;;;10017086;28;20145;-72
2023/12/22 11:08:36;;;;;;;46.15;16.52;;;;;;;;;;10039731;28;20049;-72
2023/12/22 11:13:27;;;;;;;0.60;0.60;;;;;;;;;;10040397;28;20446;-72
2023/12/22 11:18:22;;;;;;;39.15;31.92;;;;;;;;;;10025687;28;20420;-72
2023/12/22 11:23:16;;;;;;;0.88;0.88;;;;;;;;;;10022118;28;20050;-72
2023/12/22 11:28:08;;;;;;;2.50;0.50;;;;;;;;;;10018920;28;20042;-72
2023/12/22 11:33:00;;;;;;;0.38;0.38;;;;;;;;;;10014710;28;20060;-72
2023/12/22 11:37:53;;;;;;;12.23;4.03;;;;;;;;;;10019242;28;20045;-72
2023/12/22 11:42:47;;;;;;;1.05;0.52;;;;;;;;;;10019388;28;20049;-72
2023/12/22 11:47:43;;;;;;;162.13;84.15;;;;;;;;;;10019334;28;20053;-72
2023/12/22 11:52:35;;;;;;;1.95;1.45;;;;;;;;;;10020322;28;20041;-72
2023/12/22 11:57:27;;;;;;;13.85;10.77;;;;;;;;;;10019678;28;20046;-72
2023/12/22 12:02:19;;;;;;;3.60;1.42;;;;;;;;;;10017516;28;20052;-72
2023/12/22 12:07:40;;;;;;;4.72;2.28;;;;;;;;;;10019198;28;20042;-72
2023/12/22 12:12:34;;;;;;;5.18;2.05;;;;;;;;;;10019577;28;20227;-73
2023/12/22 12:17:26;;;;;;;4.68;1.02;;;;;;;;;;10017256;28;20149;-72
2023/12/22 12:22:18;;;;;;;2.20;1.27;;;;;;;;;;10017358;28;20049;-72
2023/12/22 12:27:10;;;;;;;1.77;0.70;;;;;;;;;;10017542;28;20069;-73
2023/12/22 12:32:05;;;;;;;1.05;0.70;;;;;;;;;;10017256;28;20061;-73
2023/12/22 12:36:59;;;;;;;102.22;21.52;;;;;;;;;;10016888;28;20042;-73
2023/12/22 12:41:53;;;;;;;20.05;10.30;;;;;;;;;;10015325;28;20549;-73
2023/12/22 12:46:45;;;;;;;19.50;17.85;;;;;;;;;;10015187;28;20144;-73
2023/12/22 12:51:48;;;;;;;1.90;1.70;;;;;;;;;;10021129;28;20139;-72
2023/12/22 12:56:44;;;;;;;372.50;66.38;;;;;;;;;;10018105;28;20172;-72
2023/12/22 13:01:43;;;;;;;172.75;62.28;;;;;;;;;;10023397;28;20041;-73
2023/12/22 13:06:35;;;;;;;141.63;38.85;;;;;;;;;;10033975;28;20034;-73
2023/12/22 13:11:30;;;;;;;4.25;3.38;;;;;;;;;;10027035;28;20523;-72
2023/12/22 13:16:30;;;;;;;1.17;1.00;;;;;;;;;;10020911;28;20042;-72
2023/12/22 13:21:22;;;;;;;4.25;2.65;;;;;;;;;;10019486;28;20046;-72
2023/12/22 13:26:20;;;;;;;12.63;3.38;;;;;;;;;;10016712;28;20034;-72
2023/12/22 13:31:18;;;;;;;1.85;1.63;;;;;;;;;;10019702;28;20045;-72
2023/12/22 13:36:10;;;;;;;0.40;0.40;;;;;;;;;;10020415;28;20042;-73
2023/12/22 13:41:03;;;;;;;0.85;0.85;;;;;;;;;;10020457;28;20042;-72
2023/12/22 13:45:55;;;;;;;3.63;1.23;;;;;;;;;;10017530;28;20045;-72
2023/12/22 13:51:01;;;;;;;0.95;0.90;;;;;;;;;;10014600;28;20412;-72
2023/12/22 13:55:57;;;;;;;1.55;0.40;;;;;;;;;;10011948;28;20120;-73
2023/12/22 14:00:50;;;;;;;1.30;0.60;;;;;;;;;;10013042;28;20526;-72
2023/12/22 14:05:45;;;;;;;0.98;0.88;;;;;;;;;;10012002;28;20439;-74
2023/12/22 14:10:37;;;;;;;28.65;17.55;;;;;;;;;;10012699;28;20065;-73
2023/12/22 14:15:29;;;;;;;0.50;0.50;;;;;;;;;;10010519;28;20041;-73
2023/12/22 14:20:33;;;;;;;0.68;0.68;;;;;;;;;;10015266;28;20054;-77
2023/12/22 14:25:26;;;;;;;0.93;0.50;;;;;;;;;;10011057;28;20042;-73
2023/12/22 14:30:18;;;;;;;0.40;0.40;;;;;;;;;;10012508;28;20500;-73
2023/12/22 14:35:11;;;;;;;0.95;0.73;;;;;;;;;;10010360;28;20056;-73
2023/12/22 14:40:03;;;;;;;26.05;15.10;;;;;;;;;;10017311;28;20046;-73
2023/12/22 14:44:55;;;;;;;3.38;0.50;;;;;;;;;;10018727;28;20058;-74
2023/12/22 14:49:46;;;;;;;0.40;0.40;;;;;;;;;;10013211;28;20954;-73
2023/12/22 14:54:38;;;;;;;0.43;0.40;;;;;;;;;;10014114;28;20049;-73
2023/12/22 14:59:30;;;;;;;0.50;0.50;;;;;;;;;;10013781;28;20034;-77
2023/12/22 15:04:22;;;;;;;56.08;8.02;;;;;;;;;;10017535;28;20530;-75
2023/12/22 15:09:14;;;;;;;0.70;0.70;;;;;;;;;;10016024;28;20050;-77
2023/12/22 15:14:06;;;;;;;1.50;1.40;;;;;;;;;;10017014;28;20500;-77
2023/12/22 15:18:58;;;;;;;2.30;0.90;;;;;;;;;;10011036;28;20057;-78
2023/12/22 15:23:51;;;;;;;1.27;0.50;;;;;;;;;;10020746;28;20041;-76
2023/12/22 15:28:42;;;;;;;2.35;2.25;;;;;;;;;;10023642;28;20221;-77
2023/12/22 15:33:34;;;;;;;1.95;0.60;;;;;;;;;;10023165;28;20042;-77
2023/12/22 15:38:27;;;;;;;1.35;0.60;;;;;;;;;;10019586;28;20084;-77
2023/12/22 15:43:18;;;;;;;2.60;1.98;;;;;;;;;;10022674;28;20425;-76
2023/12/22 15:48:10;;;;;;;2.17;1.60;;;;;;;;;;10018421;28;20068;-77
2023/12/22 15:53:02;;;;;;;0.52;0.52;;;;;;;;;;10014651;28;20501;-78
2023/12/22 15:57:54;;;;;;;2.55;1.00;;;;;;;;;;10017911;28;20049;-77
2023/12/22 16:02:46;;;;;;;1.65;1.40;;;;;;;;;;10017233;28;20123;-78
2023/12/22 16:07:40;;;;;;;1.30;1.20;;;;;;;;;;10020060;28;20050;-78
2023/12/22 16:12:34;;;;;;;5.90;1.88;;;;;;;;;;10019284;28;20454;-77
2023/12/22 16:17:27;;;;;;;3.60;2.85;;;;;;;;;;10023822;28;20061;-77
2023/12/22 16:22:19;;;;;;;18.48;12.70;;;;;;;;;;10021352;28;20038;-78
2023/12/22 16:27:11;;;;;;;1.73;1.00;;;;;;;;;;10014974;28;20046;-78
2023/12/22 16:32:03;;;;;;;3.10;1.10;;;;;;;;;;10018690;28;20465;-78
2023/12/22 16:36:55;;;;;;;1.83;1.70;;;;;;;;;;10021933;28;20037;-78
2023/12/22 16:41:47;;;;;;;2.75;1.63;;;;;;;;;;10020771;28;20066;-78
2023/12/22 16:46:39;;;;;;;8.25;5.90;;;;;;;;;;10019454;28;20100;-77
2023/12/22 16:51:31;;;;;;;3.63;2.67;;;;;;;;;;10023105;28;20125;-77
2023/12/22 16:56:22;;;;;;;3.85;2.90;;;;;;;;;;10019419;28;20050;-78
2023/12/22 17:01:14;;;;;;;3.97;2.65;;;;;;;;;;10019505;28;20041;-78
2023/12/22 17:06:26;;;;;;;4.75;3.13;;;;;;;;;;10018807;28;20446;-80
2023/12/22 17:11:18;;;;;;;5.13;3.15;;;;;;;;;;10019172;28;20133;-78
2023/12/22 17:16:10;;;;;;;3.90;1.80;;;;;;;;;;10020365;28;20048;-78
2023/12/22 17:21:02;;;;;;;4.60;2.45;;;;;;;;;;10019114;28;20046;-78
2023/12/22 17:25:57;;;;;;;3.58;2.20;;;;;;;;;;10019387;28;20137;-78
2023/12/22 17:30:49;;;;;;;3.15;2.15;;;;;;;;;;10020989;28;20457;-78
2023/12/22 17:35:41;;;;;;;2.38;2.17;;;;;;;;;;10020608;28;20366;-78
2023/12/22 17:40:33;;;;;;;4.40;2.58;;;;;;;;;;10021426;28;20053;-78
2023/12/22 17:45:25;;;;;;;7.55;2.13;;;;;;;;;;10020380;28;20548;-78
2023/12/22 17:50:18;;;;;;;12.38;4.88;;;;;;;;;;10016824;28;20038;-77
2023/12/22 17:55:10;;;;;;;9.85;3.20;;;;;;;;;;10018428;28;20057;-77
2023/12/22 18:00:03;;;;;;;6.22;1.55;;;;;;;;;;10017752;28;20075;-78
2023/12/22 18:04:58;;;;;;;2.45;1.50;;;;;;;;;;10020007;28;20100;-78
2023/12/22 18:09:50;;;;;;;16.05;5.50;;;;;;;;;;10018175;28;20049;-78
2023/12/22 18:14:42;;;;;;;4.22;1.30;;;;;;;;;;10022610;28;20403;-77
2023/12/22 18:19:34;;;;;;;76.93;20.58;;;;;;;;;;10024406;28;20547;-78
2023/12/22 18:24:26;;;;;;;4.10;1.77;;;;;;;;;;10023620;28;20042;-78
2023/12/22 18:29:19;;;;;;;61.58;54.83;;;;;;;;;;10026188;28;20073;-78
2023/12/22 18:34:11;;;;;;;4.05;1.63;;;;;;;;;;10027120;28;20050;-78
2023/12/22 18:39:03;;;;;;;2.22;1.67;;;;;;;;;;10025033;28;20052;-78
2023/12/22 18:43:55;;;;;;;3.03;1.10;;;;;;;;;;10029597;28;20152;-78
2023/12/22 18:48:47;;;;;;;2.25;1.30;;;;;;;;;;10025076;28;20062;-78
2023/12/22 18:53:40;;;;;;;9.20;8.45;;;;;;;;;;10029679;28;20144;-78
2023/12/22 18:58:32;;;;;;;2.38;1.23;;;;;;;;;;10027862;28;20054;-78
2023/12/22 19:03:24;;;;;;;5.93;2.00;;;;;;;;;;10026364;28;20097;-77
2023/12/22 19:08:16;;;;;;;2.55;1.30;;;;;;;;;;10026472;28;20046;-78
2023/12/22 19:13:08;;;;;;;127.80;58.20;;;;;;;;;;10020208;28;20073;-78
2023/12/22 19:18:00;;;;;;;2.05;1.50;;;;;;;;;;10020563;28;20065;-78
2023/12/22 19:22:52;;;;;;;3.40;1.00;;;;;;;;;;10019351;28;20042;-78
2023/12/22 19:27:45;;;;;;;1.13;0.95;;;;;;;;;;10024207;28;20128;-78
2023/12/22 19:32:38;;;;;;;218.52;43.53;;;;;;;;;;10026745;28;20053;-78
2023/12/22 19:37:31;;;;;;;31.20;16.20;;;;;;;;;;10023471;28;20300;-78
2023/12/22 19:42:22;;;;;;;0.90;0.77;;;;;;;;;;10022199;28;20058;-78
2023/12/22 19:47:14;;;;;;;2.80;1.50;;;;;;;;;;10017279;28;20073;-78
2023/12/22 19:52:07;;;;;;;17.40;16.30;;;;;;;;;;10017672;28;20077;-78
2023/12/22 19:56:59;;;;;;;1.50;1.02;;;;;;;;;;10025149;28;20038;-78
2023/12/22 20:01:51;;;;;;;1.23;1.13;;;;;;;;;;10026182;28;20112;-78
2023/12/22 20:06:44;;;;;;;1.13;1.00;;;;;;;;;;10023830;28;20046;-78
2023/12/22 20:11:36;;;;;;;1.05;1.00;;;;;;;;;;10021891;28;20466;-78
2023/12/22 20:16:28;;;;;;;1.42;0.90;;;;;;;;;;10016382;28;20125;-80
2023/12/22 20:21:20;;;;;;;0.95;0.85;;;;;;;;;;10019717;28;20385;-79
2023/12/22 20:26:12;;;;;;;1.85;0.95;;;;;;;;;;10017998;28;20484;-78
2023/12/22 20:31:05;;;;;;;1.50;1.40;;;;;;;;;;10015802;28;20073;-78
2023/12/22 20:35:58;;;;;;;1.88;1.00;;;;;;;;;;10018849;28;20429;-78
2023/12/22 20:40:49;;;;;;;3.03;1.17;;;;;;;;;;10019630;28;20500;-80
2023/12/22 20:45:43;;;;;;;4.05;2.80;;;;;;;;;;10020537;28;20088;-78
2023/12/22 20:50:35;;;;;;;1.55;1.45;;;;;;;;;;10018989;28;20048;-79
2023/12/22 20:55:27;;;;;;;3.63;2.55;;;;;;;;;;10015568;28;20406;-78
2023/12/22 21:00:19;;;;;;;4.15;2.95;;;;;;;;;;10019218;28;20160;-77
2023/12/22 21:05:11;;;;;;;1.80;1.60;;;;;;;;;;10018295;28;20073;-77
2023/12/22 21:10:03;;;;;;;0.93;0.85;;;;;;;;;;10015081;28;20112;-74
2023/12/22 21:14:55;;;;;;;2.28;1.20;;;;;;;;;;10020177;28;20545;-74
2023/12/22 21:19:47;;;;;;;2.33;1.13;;;;;;;;;;10020480;28;20072;-73
2023/12/22 21:24:39;;;;;;;70.07;28.35;;;;;;;;;;10020467;28;20530;-73
2023/12/22 21:29:31;;;;;;;0.82;0.82;;;;;;;;;;10019455;28;20054;-74
2023/12/22 21:34:23;;;;;;;0.80;0.80;;;;;;;;;;10021064;28;20353;-75
2023/12/22 21:39:14;;;;;;;3.20;2.70;;;;;;;;;;10020694;28;20160;-77
2023/12/22 21:44:06;;;;;;;1.27;1.00;;;;;;;;;;10022915;28;20528;-75
2023/12/22 21:48:58;;;;;;;1.92;0.90;;;;;;;;;;10020033;28;20054;-77
2023/12/22 21:53:51;;;;;;;3.67;1.08;;;;;;;;;;10019263;28;20050;-77
2023/12/22 21:58:44;;;;;;;1.48;1.15;;;;;;;;;;10018966;28;20041;-77
2023/12/22 22:03:37;;;;;;;6.03;4.57;;;;;;;;;;10016040;28;20045;-72
2023/12/22 22:08:29;;;;;;;0.90;0.75;;;;;;;;;;10019133;28;20058;-73
2023/12/22 22:13:21;;;;;;;1.27;0.98;;;;;;;;;;10020230;28;20130;-73
2023/12/22 22:18:14;;;;;;;0.90;0.60;;;;;;;;;;10020448;28;20440;-73
2023/12/22 22:23:06;;;;;;;2.63;0.80;;;;;;;;;;10019943;28;20041;-73
2023/12/22 22:27:59;;;;;;;0.77;0.68;;;;;;;;;;10020540;28;20473;-73
2023/12/22 22:32:50;;;;;;;5.80;3.10;;;;;;;;;;10020768;28;20425;-73
2023/12/22 22:37:42;;;;;;;0.60;0.60;;;;;;;;;;10021375;28;20042;-73
2023/12/22 22:42:34;;;;;;;1.70;1.60;;;;;;;;;;10021459;28;20046;-73
2023/12/22 22:47:26;;;;;;;0.95;0.90;;;;;;;;;;10016915;28;20096;-73
2023/12/22 22:52:18;;;;;;;0.68;0.60;;;;;;;;;;10018198;28;20060;-74
2023/12/22 22:57:10;;;;;;;1.60;0.65;;;;;;;;;;10019067;28;20457;-73
2023/12/22 23:02:03;;;;;;;1.17;0.85;;;;;;;;;;10025879;28;20042;-73
2023/12/22 23:06:55;;;;;;;1.63;0.80;;;;;;;;;;10029255;28;20073;-73
2023/12/22 23:11:47;;;;;;;4.15;2.08;;;;;;;;;;10026233;28;20910;-73
2023/12/22 23:16:39;;;;;;;1.83;0.70;;;;;;;;;;10028953;28;20050;-73
2023/12/22 23:21:31;;;;;;;1.75;0.70;;;;;;;;;;10028163;28;20042;-73
2023/12/22 23:26:23;;;;;;;1.75;0.90;;;;;;;;;;10028964;28;20042;-73
2023/12/22 23:31:15;;;;;;;1.60;1.00;;;;;;;;;;10027658;28;20033;-73
2023/12/22 23:36:07;;;;;;;1.75;1.65;;;;;;;;;;10026736;28;20046;-73
2023/12/22 23:41:12;;;;;;;1.58;1.30;;;;;;;;;;10026203;28;20046;-73
2023/12/22 23:46:04;;;;;;;1.70;1.15;;;;;;;;;;10018956;28;20046;-73
2023/12/22 23:51:02;;;;;;;2.28;1.30;;;;;;;;;;10018770;28;20049;-73
2023/12/22 23:55:54;;;;;;;2.78;2.15;;;;;;;;;;10019495;28;20053;-74
